Time;durP1;ratioP1;P1;durP2;ratioP2;P2;SDS_P1;SDS_P2;PMS_P1;PMS_P2;Temp;Humidity;BMP_temperature;BMP_pressure;BME280_temperature;BME280_humidity;BME280_pressure;Samples;Min_cycle;Max_cycle;Signal;HPM_P1;HPM_P2
2022/10/11 00:01:07;;;;;;;;;17.25;15.75;;;;;16.45;55.79;101314.72;146599;678;47012;-74
2022/10/11 00:04:17;;;;;;;;;18.00;17.00;;;;;18.25;56.78;101629.66;146604;569;47010;-74
2022/10/11 00:07:16;;;;;;;;;20.00;18.25;;;;;18.23;56.47;101637.50;146602;564;46034;-73
2022/10/11 00:10:17;;;;;;;;;17.75;16.00;;;;;18.22;56.45;101632.16;146608;570;46020;-74
2022/10/11 00:13:11;;;;;;;;;13.75;13.00;;;;;18.16;57.14;101632.88;146601;575;46013;-75
2022/10/11 00:16:04;;;;;;;;;20.25;16.50;;;;;18.10;57.28;101629.13;146602;595;46020;-74
2022/10/11 00:19:02;;;;;;;;;21.50;18.75;;;;;18.08;57.25;101628.19;146605;662;46015;-75
2022/10/11 00:22:03;;;;;;;;;17.50;16.75;;;;;18.05;57.52;101625.47;146609;577;46021;-74
2022/10/11 00:24:59;;;;;;;;;18.25;17.25;;;;;18.01;57.64;101621.84;146603;629;46012;-77
2022/10/11 00:27:57;;;;;;;;;16.50;15.75;;;;;17.96;57.65;101615.53;146608;635;46010;-77
2022/10/11 00:30:51;;;;;;;;;17.75;16.00;;;;;17.92;57.93;101606.66;146604;586;46012;-75
2022/10/11 00:33:47;;;;;;;;;17.00;17.00;;;;;17.90;57.84;101615.31;146609;621;46020;-75
2022/10/11 00:36:39;;;;;;;;;16.00;15.25;;;;;17.90;57.61;101608.31;146606;625;46014;-75
2022/10/11 00:39:38;;;;;;;;;18.00;17.75;;;;;17.90;57.42;101599.56;146607;584;46010;-75
2022/10/11 00:42:39;;;;;;;;;20.00;17.00;;;;;17.89;57.69;101596.06;146604;601;46013;-73
2022/10/11 00:46:16;;;;;;;;;17.75;15.75;;;;;16.88;56.92;101413.22;146601;615;46020;-75
2022/10/11 00:49:24;;;;;;;;;17.00;17.00;;;;;17.91;57.85;101585.59;146605;592;46016;-74
2022/10/11 00:52:42;;;;;;;;;19.75;18.25;;;;;17.90;57.28;101573.31;146608;727;46010;-72
2022/10/11 00:55:46;;;;;;;;;19.25;15.75;;;;;17.89;57.75;101574.19;146601;578;46016;-72
2022/10/11 00:58:40;;;;;;;;;19.00;18.00;;;;;17.88;58.09;101573.28;146608;638;46021;-74
2022/10/11 01:01:34;;;;;;;;;19.00;15.50;;;;;17.88;58.13;101569.75;146604;564;46014;-68
2022/10/11 01:04:38;;;;;;;;;19.25;19.00;;;;;17.89;57.19;101561.94;146609;592;46019;-69
2022/10/11 01:07:34;;;;;;;;;19.25;19.00;;;;;17.91;58.11;101565.53;146602;563;46012;-70
2022/10/11 01:10:29;;;;;;;;;17.50;17.50;;;;;17.97;57.62;101564.81;146610;587;46020;-69
2022/10/11 01:13:59;;;;;;;;;17.50;17.00;;;;;16.97;56.51;101392.59;146603;633;46016;-70
2022/10/11 01:17:35;;;;;;;;;14.25;13.75;;;;;18.03;57.00;101570.28;146603;636;46020;-68
2022/10/11 01:21:16;;;;;;;;;20.25;18.00;;;;;17.33;56.12;101444.56;146603;564;46013;-69
2022/10/11 01:25:21;;;;;;;;;15.50;14.50;;;;;18.04;56.12;101566.84;146608;584;46020;-67
2022/10/11 01:28:58;;;;;;;;;16.25;16.00;;;;;17.05;56.68;101385.91;146606;589;46016;-69
2022/10/11 01:32:11;;;;;;;;;17.75;16.75;;;;;18.02;57.45;101551.87;146608;596;46020;-70
2022/10/11 01:35:39;;;;;;;;;19.00;16.50;;;;;18.00;57.25;101554.44;146607;570;46017;-68
2022/10/11 01:39:16;;;;;;;;;18.50;15.75;;;;;17.97;57.42;101544.75;146610;588;46020;-67
2022/10/11 01:42:13;;;;;;;;;17.50;16.50;;;;;17.96;57.99;101542.94;146601;608;47012;-69
2022/10/11 01:45:30;;;;;;;;;17.00;15.25;;;;;16.98;57.13;101370.81;146604;661;46020;-68
2022/10/11 01:48:28;;;;;;;;;19.00;18.50;;;;;17.99;58.08;101547.41;146604;610;46016;-68
2022/10/11 01:51:44;;;;;;;;;17.50;15.50;;;;;17.06;57.23;101367.62;146603;684;46020;-68
2022/10/11 01:55:16;;;;;;;;;17.00;17.00;;;;;18.09;57.44;101528.50;146604;632;46035;-68
2022/10/11 01:58:59;;;;;;;;;19.50;19.50;;;;;17.05;56.66;101341.38;146609;734;46020;-68
2022/10/11 02:02:41;;;;;;;;;16.50;16.50;;;;;18.10;57.36;101527.69;146603;576;46016;-68
2022/10/11 02:06:07;;;;;;;;;15.50;14.50;;;;;17.36;56.90;101406.22;146608;585;46021;-72
2022/10/11 02:09:42;;;;;;;;;16.50;15.75;;;;;18.10;57.15;101527.69;146601;571;46012;-72
2022/10/11 02:12:43;;;;;;;;;19.75;18.75;;;;;18.16;57.72;101530.50;146609;698;46021;-70
2022/10/11 02:15:40;;;;;;;;;16.50;14.25;;;;;18.22;57.64;101537.66;146602;583;46012;-71
2022/10/11 02:18:39;;;;;;;;;17.25;17.25;;;;;18.28;57.47;101540.50;146606;564;47020;-71
2022/10/11 02:21:40;;;;;;;;;15.00;15.00;;;;;18.31;57.39;101540.59;146606;569;46016;-70
2022/10/11 02:24:41;;;;;;;;;17.75;16.50;;;;;18.32;57.58;101542.41;146603;618;46020;-72
2022/10/11 02:27:45;;;;;;;;;21.25;19.50;;;;;18.32;57.71;101538.87;146604;712;46013;-70
2022/10/11 02:30:43;;;;;;;;;17.50;17.00;;;;;18.28;57.95;101542.25;146608;571;46020;-71
2022/10/11 02:33:57;;;;;;;;;16.25;15.50;;;;;18.18;57.97;101535.78;146606;604;46012;-71
2022/10/11 02:37:33;;;;;;;;;17.25;17.25;;;;;18.13;57.28;101545.22;146608;635;46010;-73
2022/10/11 02:40:59;;;;;;;;;16.50;15.00;;;;;17.04;57.36;101357.91;146603;577;46012;-73
2022/10/11 02:44:59;;;;;;;;;19.75;17.25;;;;;17.04;57.26;101357.91;146608;709;46020;-72
2022/10/11 02:48:16;;;;;;;;;19.25;17.25;;;;;16.31;58.15;101233.09;146602;646;46015;-70
2022/10/11 02:51:27;;;;;;;;;19.75;18.50;;;;;17.99;58.42;101531.66;146605;581;47021;-70
2022/10/11 02:54:30;;;;;;;;;20.00;19.00;;;;;17.97;58.76;101533.34;146605;568;46016;-70
2022/10/11 02:57:25;;;;;;;;;22.00;19.75;;;;;17.97;58.71;101529.00;146603;570;46011;-74
2022/10/11 03:00:26;;;;;;;;;21.50;20.25;;;;;18.04;58.50;101534.44;146605;566;46014;-73
2022/10/11 03:03:37;;;;;;;;;17.75;16.75;;;;;17.06;57.83;101354.50;146609;640;46020;-72
2022/10/11 03:06:37;;;;;;;;;25.25;20.00;;;;;18.13;58.81;101534.75;146603;598;46012;-71
2022/10/11 03:09:52;;;;;;;;;21.50;19.25;;;;;18.16;58.60;101533.12;146606;608;46010;-70
2022/10/11 03:12:44;;;;;;;;;23.25;18.75;;;;;18.16;58.82;101525.25;146603;577;46012;-73
2022/10/11 03:15:39;;;;;;;;;22.00;17.75;;;;;18.12;59.00;101522.47;146607;625;46020;-73
2022/10/11 03:18:35;;;;;;;;;21.50;19.25;;;;;18.06;58.70;101528.41;146603;699;46013;-75
2022/10/11 03:21:36;;;;;;;;;20.50;19.00;;;;;18.04;58.94;101530.09;146608;602;46010;-71
2022/10/11 03:24:29;;;;;;;;;20.50;19.50;;;;;18.03;59.24;101530.91;146602;592;46015;-72
2022/10/11 03:27:24;;;;;;;;;19.25;18.25;;;;;17.99;59.24;101524.69;146601;577;46021;-70
2022/10/11 03:30:19;;;;;;;;;21.25;20.75;;;;;17.97;58.96;101525.47;146603;566;46012;-71
2022/10/11 03:33:23;;;;;;;;;19.00;17.25;;;;;17.96;58.87;101531.56;146608;564;46011;-70
2022/10/11 03:36:39;;;;;;;;;;;;;;;;;;;;;
2022/10/11 03:39:46;;;;;;;;;25.25;22.50;;;;;17.94;59.17;101526.28;146609;576;46021;-74
2022/10/11 03:42:50;;;;;;;;;21.75;21.50;;;;;17.90;59.44;101519.13;146602;575;46032;-73
2022/10/11 03:45:43;;;;;;;;;17.75;15.75;;;;;17.90;59.82;101519.13;146611;587;46020;-72
2022/10/11 03:48:42;;;;;;;;;21.50;21.25;;;;;17.91;59.52;101517.38;146604;596;46017;-71
2022/10/11 03:51:40;;;;;;;;;22.50;20.75;;;;;17.91;59.75;101520.00;146606;564;46010;-72
2022/10/11 03:54:35;;;;;;;;;24.00;21.75;;;;;17.88;60.15;101504.16;146603;581;46012;-73
2022/10/11 03:57:39;;;;;;;;;22.75;21.00;;;;;17.90;59.55;101510.34;146602;618;46021;-74
2022/10/11 04:00:48;;;;;;;;;24.25;22.00;;;;;16.90;58.76;101326.00;146603;590;46014;-72
2022/10/11 04:03:45;;;;;;;;;24.25;21.25;;;;;17.98;60.13;101501.03;146609;594;45021;-71
2022/10/11 04:06:46;;;;;;;;;26.50;23.00;;;;;17.99;60.80;101510.66;146605;564;46016;-72
2022/10/11 04:09:54;;;;;;;;;;;;;;;;;;;;;
2022/10/11 04:13:00;;;;;;;;;26.00;22.25;;;;;17.95;60.22;101507.06;146604;594;46014;-73
2022/10/11 04:15:53;;;;;;;;;25.00;23.75;;;;;17.98;61.29;101494.03;146606;610;46010;-71
2022/10/11 04:18:51;;;;;;;;;26.25;23.75;;;;;17.99;62.76;101501.06;146604;640;46016;-70
2022/10/11 04:21:48;;;;;;;;;23.75;20.50;;;;;17.95;62.88;101498.31;146607;618;46010;-70
2022/10/11 04:25:01;;;;;;;;;23.25;22.75;;;;;17.90;62.74;101500.75;146605;569;46021;-70
2022/10/11 04:27:56;;;;;;;;;26.25;24.00;;;;;17.90;64.61;101511.25;146601;660;46020;-69
2022/10/11 04:30:51;;;;;;;;;27.00;25.25;;;;;17.83;64.38;101505.75;146603;578;46012;-69
2022/10/11 04:33:52;;;;;;;;;25.00;23.50;;;;;17.78;63.17;101509.09;146608;570;46021;-72
2022/10/11 04:36:53;;;;;;;;;24.75;24.50;;;;;17.79;64.41;101515.25;146603;593;46016;-73
2022/10/11 04:40:00;;;;;;;;;26.75;23.75;;;;;17.84;65.05;101513.66;146606;608;46013;-73
2022/10/11 04:43:01;;;;;;;;;24.00;23.50;;;;;17.83;66.13;101518.88;146604;600;48012;-72
2022/10/11 04:45:59;;;;;;;;;28.00;26.25;;;;;17.70;66.05;101520.16;146608;573;46010;-74
2022/10/11 04:48:51;;;;;;;;;30.00;24.50;;;;;17.62;66.18;101521.59;146605;592;46016;-74
2022/10/11 04:51:56;;;;;;;;;28.00;26.25;;;;;17.59;65.98;101526.72;146604;586;46916;-74
2022/10/11 04:55:05;;;;;;;;;26.25;25.00;;;;;17.60;64.94;101533.75;146605;600;46014;-73
2022/10/11 04:58:03;;;;;;;;;26.75;25.50;;;;;17.62;66.26;101521.59;146602;732;46020;-75
2022/10/11 05:01:12;;;;;;;;;26.00;21.50;;;;;17.62;66.31;101530.34;146603;581;46017;-74
2022/10/11 05:04:06;;;;;;;;;27.00;24.00;;;;;17.60;67.09;101526.81;146608;598;46021;-71
2022/10/11 05:07:05;;;;;;;;;25.75;24.75;;;;;17.57;66.83;101516.22;146605;611;46016;-73
2022/10/11 05:10:14;;;;;;;;;26.25;25.25;;;;;17.60;67.30;101518.03;146608;575;46011;-71
2022/10/11 05:13:22;;;;;;;;;27.50;25.25;;;;;17.59;67.31;101514.50;146606;600;46016;-69
2022/10/11 05:16:17;;;;;;;;;26.00;22.75;;;;;17.66;67.40;101513.91;146610;574;46020;-69
2022/10/11 05:19:16;;;;;;;;;27.50;25.50;;;;;17.70;68.14;101512.28;146604;571;46016;-68
2022/10/11 05:22:09;;;;;;;;;28.00;26.25;;;;;17.71;67.64;101511.44;146610;651;46020;-70
2022/10/11 05:25:07;;;;;;;;;25.25;22.75;;;;;16.87;66.90;101356.44;146608;572;46016;-69
2022/10/11 05:28:03;;;;;;;;;24.75;23.25;;;;;16.97;66.49;101366.41;146604;607;46010;-70
2022/10/11 05:31:13;;;;;;;;;;;;;;;;;;;;;
2022/10/11 05:34:11;;;;;;;;;29.25;25.25;;;;;17.96;66.13;101507.94;146609;644;46010;-70
2022/10/11 05:37:31;;;;;;;;;24.75;24.25;;;;;18.05;65.78;101510.00;146605;565;46014;-69
2022/10/11 05:40:32;;;;;;;;;27.50;25.75;;;;;18.19;65.62;101513.94;146611;699;46020;-69
2022/10/11 05:43:27;;;;;;;;;26.50;23.25;;;;;18.28;66.02;101508.09;146605;563;46012;-70
2022/10/11 05:46:32;;;;;;;;;25.50;20.75;;;;;18.35;65.94;101510.06;146611;610;46020;-73
2022/10/11 05:49:34;;;;;;;;;23.75;21.75;;;;;18.39;65.15;101509.34;146607;604;46016;-72
2022/10/11 05:52:36;;;;;;;;;28.75;23.50;;;;;18.43;65.16;101503.34;146612;610;46020;-73
2022/10/11 05:55:30;;;;;;;;;22.00;19.75;;;;;18.49;65.26;101515.78;146602;602;46012;-72
2022/10/11 05:58:28;;;;;;;;;23.25;21.00;;;;;18.58;64.90;101513.44;146603;576;46020;-74
2022/10/11 06:01:28;;;;;;;;;26.50;23.50;;;;;18.65;63.88;101503.16;146607;592;46012;-72
2022/10/11 06:04:33;;;;;;;;;23.50;21.00;;;;;18.75;64.94;101504.37;146610;677;46020;-72
2022/10/11 06:07:28;;;;;;;;;27.50;22.75;;;;;18.85;65.55;101503.81;146604;752;46916;-72
2022/10/11 06:10:36;;;;;;;;;23.00;21.25;;;;;18.96;64.33;101511.13;146606;594;46021;-72
2022/10/11 06:13:38;;;;;;;;;22.00;18.75;;;;;19.05;64.33;101506.12;146605;584;46012;-74
2022/10/11 06:16:39;;;;;;;;;28.25;26.25;;;;;19.17;63.91;101505.59;146609;588;46012;-71
2022/10/11 06:19:32;;;;;;;;;31.50;26.75;;;;;19.28;63.98;101517.28;146605;588;45016;-72
2022/10/11 06:22:28;;;;;;;;;34.25;30.00;;;;;19.40;62.97;101515.00;146607;582;46020;-72
2022/10/11 06:25:21;;;;;;;;;31.75;28.00;;;;;19.52;62.70;101522.34;146605;584;46017;-68
2022/10/11 06:28:19;;;;;;;;;36.00;30.25;;;;;19.62;62.15;101533.19;146602;564;46020;-68
2022/10/11 06:31:17;;;;;;;;;48.75;39.50;;;;;19.74;62.15;101537.00;146607;623;46016;-73
2022/10/11 06:34:09;;;;;;;;;47.00;37.75;;;;;19.78;61.83;101524.00;146609;765;45020;-74
2022/10/11 06:37:08;;;;;;;;;47.00;38.25;;;;;19.81;61.73;101534.59;146604;577;46016;-70
2022/10/11 06:40:06;;;;;;;;;43.75;35.75;;;;;19.84;61.43;101542.59;146609;622;46020;-70
2022/10/11 06:43:04;;;;;;;;;37.75;33.50;;;;;19.85;60.82;101543.47;146604;588;46027;-68
2022/10/11 06:46:07;;;;;;;;;46.75;36.25;;;;;19.90;60.22;101546.19;146610;596;46010;-70
2022/10/11 06:49:08;;;;;;;;;40.25;35.25;;;;;19.93;60.32;101557.69;146603;573;46016;-70
2022/10/11 06:52:00;;;;;;;;;24.50;20.75;;;;;19.96;60.08;101557.78;146610;589;45020;-70
2022/10/11 06:54:55;;;;;;;;;25.25;24.25;;;;;20.01;59.80;101557.91;146607;572;46016;-70
2022/10/11 06:57:49;;;;;;;;;23.50;21.00;;;;;20.03;59.53;101575.53;146604;576;45050;-71
2022/10/11 07:00:44;;;;;;;;;31.50;28.00;;;;;20.13;59.81;101567.88;146603;564;46016;-71
2022/10/11 07:03:48;;;;;;;;;27.25;27.00;;;;;20.28;59.65;101565.63;146607;578;46020;-70
2022/10/11 07:06:46;;;;;;;;;31.25;28.50;;;;;20.46;59.27;101568.69;146604;611;46016;-67
2022/10/11 07:09:39;;;;;;;;;24.00;22.50;;;;;20.61;58.38;101572.59;146610;576;46021;-67
2022/10/11 07:12:42;;;;;;;;;29.50;27.50;;;;;20.77;57.94;101577.34;146605;590;46014;-67
2022/10/11 07:15:45;;;;;;;;;24.75;21.00;;;;;20.00;56.90;101424.50;146608;622;46021;-66
2022/10/11 07:18:41;;;;;;;;;22.00;21.75;;;;;21.00;57.25;101572.63;146605;580;46014;-67
2022/10/11 07:21:48;;;;;;;;;26.50;24.50;;;;;21.09;57.02;101566.63;146611;755;46020;-69
2022/10/11 07:24:45;;;;;;;;;28.75;25.25;;;;;21.17;57.02;101573.88;146596;586;48918;-68
2022/10/11 07:27:43;;;;;;;;;36.00;29.75;;;;;21.23;56.35;101570.47;146604;573;46010;-67
2022/10/11 07:30:37;;;;;;;;;38.00;32.00;;;;;19.71;56.49;101289.59;146604;564;47016;-67
2022/10/11 07:33:31;;;;;;;;;36.25;31.00;;;;;21.31;56.34;101567.97;146607;596;46010;-68
2022/10/11 07:36:58;;;;;;;;;36.75;33.00;;;;;21.27;56.29;101555.59;146601;571;49918;-68
2022/10/11 07:39:52;;;;;;;;;35.50;31.00;;;;;21.28;56.31;101557.38;146610;584;46020;-68
2022/10/11 07:43:00;;;;;;;;;38.25;33.00;;;;;20.18;56.05;101358.22;146606;607;46016;-66
2022/10/11 07:45:59;;;;;;;;;42.75;35.00;;;;;21.38;56.50;101549.72;146610;623;45031;-66
2022/10/11 07:49:12;;;;;;;;;37.00;33.00;;;;;21.47;56.18;101548.13;146607;589;46016;-68
2022/10/11 07:52:41;;;;;;;;;;;;;;;;;;;;;
2022/10/11 07:55:42;;;;;;;;;36.50;32.00;;;;;21.66;55.71;101545.87;146607;612;46016;-67
2022/10/11 07:58:35;;;;;;;;;37.50;32.00;;;;;21.74;55.77;101548.63;146605;704;46021;-67
2022/10/11 08:01:27;;;;;;;;;32.50;30.50;;;;;21.86;55.60;101543.59;146604;571;46020;-68
2022/10/11 08:04:32;;;;;;;;;31.75;30.00;;;;;21.80;55.02;101521.47;146610;622;46010;-66
2022/10/11 08:07:33;;;;;;;;;34.50;30.25;;;;;22.01;55.27;101537.69;146605;578;46016;-70
2022/10/11 08:10:28;;;;;;;;;41.50;32.50;;;;;22.04;55.40;101550.94;146609;582;46020;-69
2022/10/11 08:13:20;;;;;;;;;35.25;31.00;;;;;22.03;55.32;101551.81;146603;642;46016;-67
2022/10/11 08:16:19;;;;;;;;;48.00;36.50;;;;;22.00;54.77;101549.13;146608;642;46010;-68
2022/10/11 08:19:14;;;;;;;;;38.25;32.00;;;;;21.97;55.23;101549.06;146603;630;46918;-68
2022/10/11 08:22:10;;;;;;;;;31.00;28.50;;;;;21.95;54.80;101556.06;146608;596;46021;-69
2022/10/11 08:25:13;;;;;;;;;25.00;18.25;;;;;21.98;54.67;101561.41;146597;573;48918;-69
2022/10/11 08:28:19;;;;;;;;;29.75;28.00;;;;;22.02;54.59;101565.87;146602;586;46020;-68
2022/10/11 08:31:29;;;;;;;;;30.75;26.75;;;;;21.11;54.34;101404.06;146602;610;46014;-69
2022/10/11 08:34:27;;;;;;;;;28.75;25.50;;;;;22.04;54.22;101564.16;146608;577;46020;-68
2022/10/11 08:37:24;;;;;;;;;25.25;23.75;;;;;22.03;54.30;101557.09;146605;593;46017;-68
2022/10/11 08:40:27;;;;;;;;;25.50;23.25;;;;;22.01;54.60;101565.84;146609;591;46020;-67
2022/10/11 08:44:01;;;;;;;;;31.25;28.25;;;;;21.36;54.22;101450.28;146603;566;46012;-68
2022/10/11 08:47:17;;;;;;;;;27.50;26.75;;;;;21.97;54.48;101553.47;146607;575;46010;-68
2022/10/11 08:50:38;;;;;;;;;26.25;25.75;;;;;21.99;54.68;101547.31;146603;613;46012;-70
2022/10/11 08:54:14;;;;;;;;;21.50;21.00;;;;;22.03;54.53;101543.00;146608;602;46010;-68
2022/10/11 08:57:09;;;;;;;;;22.50;21.50;;;;;22.09;55.15;101528.16;146606;631;46016;-69
2022/10/11 09:00:30;;;;;;;;;;;;;;;;;;;;;
2022/10/11 09:04:05;;;;;;;;;;;;;;;;;;;;;
2022/10/11 09:07:52;;;;;;;;;25.00;20.75;;;;;21.40;54.18;101365.06;146607;600;46010;-69
2022/10/11 09:11:11;;;;;;;;;26.25;25.00;;;;;22.33;53.93;101532.06;146602;597;46016;-69
2022/10/11 09:15:15;;;;;;;;;26.50;23.00;;;;;21.49;54.02;101361.69;146607;661;46021;-68
2022/10/11 09:18:53;;;;;;;;;23.50;21.50;;;;;21.60;53.77;101353.09;146601;563;46016;-69
2022/10/11 09:22:18;;;;;;;;;23.50;21.00;;;;;21.65;53.94;101343.50;146607;575;46021;-70
2022/10/11 09:25:38;;;;;;;;;25.00;23.00;;;;;22.88;53.05;101506.47;146602;635;46012;-72
2022/10/11 09:29:05;;;;;;;;;22.50;20.75;;;;;23.05;53.19;101510.25;146604;602;46010;-68
2022/10/11 09:32:27;;;;;;;;;21.00;19.00;;;;;23.28;53.04;101506.97;146602;604;46016;-68
2022/10/11 09:35:28;;;;;;;;;20.75;20.50;;;;;23.57;51.70;101502.00;146601;592;46027;-67
2022/10/11 09:39:12;;;;;;;;;23.75;21.00;;;;;22.94;51.70;101353.19;146599;604;47012;-70
2022/10/11 09:42:12;;;;;;;;;26.75;24.00;;;;;24.11;50.88;101494.56;146607;582;46020;-77
2022/10/11 09:45:22;;;;;;;;;31.25;27.75;;;;;24.45;50.59;101497.50;146604;570;46024;-78
2022/10/11 09:48:45;;;;;;;;;25.50;22.00;;;;;24.82;49.62;101502.13;146609;628;46020;-76
2022/10/11 09:51:40;;;;;;;;;20.25;19.00;;;;;25.11;47.95;101498.72;146599;575;46027;-75
2022/10/11 09:54:52;;;;;;;;;28.25;25.25;;;;;25.26;48.08;101505.88;146606;585;46020;-69
2022/10/11 09:57:44;;;;;;;;;21.50;20.75;;;;;25.22;47.58;101499.66;146602;612;46016;-72
2022/10/11 10:00:45;;;;;;;;;22.25;21.50;;;;;25.10;47.71;101497.81;146606;613;46021;-69
2022/10/11 10:04:13;;;;;;;;;25.50;25.25;;;;;24.93;49.10;101498.66;146601;563;47014;-71
2022/10/11 10:07:20;;;;;;;;;22.50;21.50;;;;;24.79;49.20;101499.44;146599;611;47011;-73
2022/10/11 10:10:53;;;;;;;;;29.00;24.50;;;;;24.63;49.64;101502.91;146607;631;46016;-72
2022/10/11 10:13:58;;;;;;;;;29.00;24.00;;;;;24.40;49.61;101497.44;146609;553;46010;-77
2022/10/11 10:17:00;;;;;;;;;26.25;23.50;;;;;24.24;49.80;101501.75;146603;569;46918;-71
2022/10/11 10:20:07;;;;;;;;;24.75;24.75;;;;;24.15;50.30;101488.44;146606;569;46010;-75
2022/10/11 10:23:22;;;;;;;;;22.25;21.00;;;;;24.26;50.20;101486.72;146605;569;46012;-68
2022/10/11 10:26:39;;;;;;;;;22.75;22.50;;;;;24.52;49.95;101483.41;146611;572;46020;-69
2022/10/11 10:29:45;;;;;;;;;22.00;21.00;;;;;24.75;48.97;101473.81;146606;712;46017;-68
2022/10/11 10:33:09;;;;;;;;;20.75;18.50;;;;;24.88;48.64;101470.31;146610;564;46020;-70
2022/10/11 10:36:36;;;;;;;;;22.75;19.75;;;;;24.14;49.43;101351.50;146605;692;46013;-69
2022/10/11 10:39:48;;;;;;;;;23.50;22.50;;;;;24.66;50.06;101465.81;146604;590;46012;-68
2022/10/11 10:42:57;;;;;;;;;22.00;20.75;;;;;24.50;49.95;101458.66;146604;567;46015;-68
2022/10/11 10:46:15;;;;;;;;;23.50;22.50;;;;;24.35;50.47;101439.09;146610;569;46010;-67
2022/10/11 10:49:29;;;;;;;;;25.00;22.25;;;;;24.32;50.53;101436.41;146605;590;46920;-69
2022/10/11 10:53:04;;;;;;;;;23.75;22.75;;;;;24.37;50.22;101423.22;146610;707;46010;-68
2022/10/11 10:56:14;;;;;;;;;17.50;17.00;;;;;24.46;50.34;101422.41;146606;609;46014;-69
2022/10/11 10:59:47;;;;;;;;;21.25;19.75;;;;;23.67;50.53;101268.22;146613;574;46021;-69
2022/10/11 11:03:06;;;;;;;;;23.50;19.00;;;;;23.62;50.09;101266.44;146605;604;46016;-69
2022/10/11 11:06:18;;;;;;;;;18.75;18.75;;;;;24.52;49.80;101414.50;146606;618;47021;-68
2022/10/11 11:09:31;;;;;;;;;25.00;21.75;;;;;24.60;49.64;101412.75;146606;594;46012;-69
2022/10/11 11:13:01;;;;;;;;;20.00;19.00;;;;;24.63;49.39;101410.09;146604;596;46011;-69
2022/10/11 11:16:50;;;;;;;;;22.00;21.50;;;;;23.80;49.43;101255.09;146604;569;46016;-69
2022/10/11 11:20:44;;;;;;;;;20.75;20.00;;;;;23.92;49.55;101281.63;146607;665;46011;-69
2022/10/11 11:24:24;;;;;;;;;21.00;19.50;;;;;23.04;49.82;101145.22;146601;601;47014;-68
2022/10/11 11:27:57;;;;;;;;;22.00;21.50;;;;;24.49;49.66;101406.53;146608;583;46022;-69
2022/10/11 11:31:20;;;;;;;;;24.50;23.75;;;;;24.41;49.44;101399.37;146605;616;46018;-68
2022/10/11 11:34:38;;;;;;;;;22.00;21.00;;;;;24.36;49.67;101405.50;146610;671;46020;-67
2022/10/11 11:37:41;;;;;;;;;20.25;17.50;;;;;24.31;49.94;101402.84;146605;564;46016;-68
2022/10/11 11:41:00;;;;;;;;;25.25;20.25;;;;;24.28;49.77;101397.53;146608;639;46034;-68
2022/10/11 11:44:26;;;;;;;;;22.75;21.50;;;;;24.32;50.24;101395.78;146604;708;46012;-69
2022/10/11 11:47:48;;;;;;;;;26.75;24.00;;;;;23.34;50.10;101230.97;146598;593;47010;-68
2022/10/11 11:50:46;;;;;;;;;21.00;19.50;;;;;24.19;49.97;101390.41;146601;672;46013;-69
2022/10/11 11:54:35;;;;;;;;;21.25;19.25;;;;;22.98;50.48;101185.72;146603;732;48010;-69
2022/10/11 11:58:02;;;;;;;;;17.75;17.25;;;;;24.20;50.52;101402.81;146603;573;46035;-69
2022/10/11 12:01:50;;;;;;;;;19.00;18.75;;;;;23.37;50.69;101238.94;146607;581;46010;-70
2022/10/11 12:04:49;;;;;;;;;18.25;16.75;;;;;24.24;50.96;101393.09;146601;571;46013;-69
2022/10/11 12:08:10;;;;;;;;;24.25;20.75;;;;;24.33;50.61;101390.50;146608;600;46020;-69
2022/10/11 12:11:12;;;;;;;;;17.50;17.50;;;;;24.41;50.35;101394.09;146597;588;47916;-67
2022/10/11 12:14:27;;;;;;;;;21.00;19.75;;;;;24.53;49.36;101385.31;146608;624;46010;-67
2022/10/11 12:17:31;;;;;;;;;19.50;19.50;;;;;24.65;48.43;101387.13;146598;622;47016;-69
2022/10/11 12:20:40;;;;;;;;;21.50;18.75;;;;;24.61;49.13;101380.03;146601;587;46021;-69
2022/10/11 12:24:02;;;;;;;;;17.00;17.00;;;;;24.48;49.30;101379.09;146601;579;47012;-69
2022/10/11 12:27:54;;;;;;;;;16.75;15.50;;;;;24.38;50.51;101379.91;146606;606;46020;-67
2022/10/11 12:31:38;;;;;;;;;18.50;16.75;;;;;23.70;50.95;101276.22;146603;609;46016;-69
2022/10/11 12:34:51;;;;;;;;;19.75;19.00;;;;;24.32;50.92;101378.09;146607;572;46020;-69
2022/10/11 12:38:47;;;;;;;;;22.75;20.75;;;;;23.50;51.42;101220.47;146607;584;46016;-68
2022/10/11 12:41:56;;;;;;;;;21.25;19.00;;;;;24.50;50.78;101371.16;146609;595;46010;-70
2022/10/11 12:45:36;;;;;;;;;16.00;14.50;;;;;23.59;50.89;101218.78;146604;582;46916;-69
2022/10/11 12:49:02;;;;;;;;;20.75;19.75;;;;;24.31;51.20;101365.75;146609;565;46021;-69
2022/10/11 12:52:11;;;;;;;;;22.25;18.75;;;;;24.14;51.57;101370.06;146603;609;46014;-69
2022/10/11 12:56:01;;;;;;;;;;;;;;;;;;;;;
2022/10/11 12:59:05;;;;;;;;;18.75;16.75;;;;;23.81;52.97;101371.63;146605;610;46016;-70
2022/10/11 13:02:06;;;;;;;;;20.75;17.00;;;;;23.65;52.96;101352.06;146608;681;46020;-70
2022/10/11 13:05:33;;;;;;;;;17.75;16.25;;;;;23.52;53.18;101366.09;146601;578;46016;-69
2022/10/11 13:08:40;;;;;;;;;15.75;15.75;;;;;23.45;53.66;101369.53;146607;569;46020;-69
2022/10/11 13:11:57;;;;;;;;;15.75;14.75;;;;;22.54;53.43;101215.25;146603;591;46918;-69
2022/10/11 13:15:08;;;;;;;;;14.75;14.25;;;;;23.45;54.17;101365.13;146605;594;46012;-69
2022/10/11 13:18:05;;;;;;;;;19.25;17.50;;;;;23.55;53.58;101365.19;146603;598;47017;-69
2022/10/11 13:21:01;;;;;;;;;16.50;15.75;;;;;23.58;53.88;101354.63;146609;624;46010;-69
2022/10/11 13:24:00;;;;;;;;;18.00;17.75;;;;;23.64;53.25;101363.50;146603;599;47012;-69
2022/10/11 13:26:57;;;;;;;;;19.50;18.75;;;;;23.71;53.82;101356.56;146603;565;46021;-69
2022/10/11 13:29:58;;;;;;;;;20.50;17.25;;;;;23.84;53.48;101354.88;146604;600;46016;-69
2022/10/11 13:33:01;;;;;;;;;16.25;15.25;;;;;23.89;52.48;101348.72;146608;575;46021;-69
2022/10/11 13:35:57;;;;;;;;;20.25;19.00;;;;;23.89;52.37;101347.81;146603;580;46016;-69
2022/10/11 13:39:09;;;;;;;;;21.00;18.75;;;;;23.85;52.61;101343.41;146609;586;46020;-69
2022/10/11 13:42:13;;;;;;;;;21.75;17.00;;;;;23.86;53.51;101340.78;146602;633;47012;-69
2022/10/11 13:45:30;;;;;;;;;14.75;14.00;;;;;23.86;52.02;101332.81;146608;603;46012;-68
2022/10/11 13:48:44;;;;;;;;;20.25;19.50;;;;;23.79;53.22;101338.06;146603;590;46013;-68
2022/10/11 13:51:54;;;;;;;;;19.00;15.75;;;;;23.65;53.53;101351.19;146607;598;46020;-68
2022/10/11 13:55:30;;;;;;;;;21.75;19.75;;;;;23.54;53.42;101350.19;146605;664;46015;-70
2022/10/11 13:59:12;;;;;;;;;19.75;17.75;;;;;22.51;53.04;101204.66;146604;591;45020;-70
2022/10/11 14:02:22;;;;;;;;;20.50;16.00;;;;;23.27;55.85;101344.69;146604;615;46016;-70
2022/10/11 14:05:45;;;;;;;;;16.75;15.75;;;;;23.09;55.11;101335.72;146608;619;46020;-67
2022/10/11 14:08:58;;;;;;;;;17.25;16.75;;;;;22.93;55.21;101332.88;146605;582;46016;-67
2022/10/11 14:12:07;;;;;;;;;19.75;18.00;;;;;22.87;56.37;101340.75;146608;629;46021;-67
2022/10/11 14:15:02;;;;;;;;;16.75;15.75;;;;;22.82;56.31;101343.31;146605;580;46016;-68
2022/10/11 14:18:08;;;;;;;;;;;;;;;;;;;;;
2022/10/11 14:21:00;;;;;;;;;20.25;19.25;;;;;22.78;56.56;101341.53;146601;616;47012;-68
2022/10/11 14:24:05;;;;;;;;;19.25;18.00;;;;;22.76;57.29;101351.19;146609;632;46010;-69
2022/10/11 14:27:08;;;;;;;;;19.75;17.75;;;;;22.72;56.37;101330.88;146606;574;46016;-70
2022/10/11 14:30:06;;;;;;;;;17.75;17.50;;;;;22.68;58.69;101333.44;146602;581;46012;-68
2022/10/11 14:33:09;;;;;;;;;21.50;18.75;;;;;22.60;58.36;101334.25;146604;597;46017;-69